Latest Weather Observations for Blackwater Airport

IDQ60801

Issued at 12:02 pm EST Thursday 11 February 2016 (issued every 30 minutes, with the page automatically refreshed every 10 minutes)

About weather observations | Map of weather stations | Latest weather observations for QLD | Other Formats
Station Details ID: 035134 Name: BLACKWATER AIRPORT Lat: -23.60 Lon: 148.81 Height: 192.95 m
Data from the previous 72 hours. | See also: Recent months at Blackwater Airport
Date/Time
EST
Temp
°C
App
Temp
°C
Dew
Point
Rel
Hum
%
Delta-T
°C
Wind Press
QNH
hPa
Press
MSL
hPa
Rain
since 9 am
mm
Dir
 
Spd
km/h
Gust
km/h
Spd
kts
Gust
kts
11/12:00pm 29.3 28.5 16.1 44 8.3 ESE 15 24 8 13 1011.0 1009.7 0.0
11/11:30am 29.5 29.5 17.3 47 7.8 SE 13 20 7 11 1011.5 1010.2 0.0
11/11:00am 28.5 30.0 18.0 53 6.7 SSE 7 19 4 10 1011.7 1010.4 0.0
11/10:30am 27.8 28.7 16.7 50 7.0 ENE 7 11 4 6 1012.0 1010.7 0.0
11/10:00am 27.9 28.6 17.1 51 6.8 E 9 13 5 7 1012.3 1011.0 0.0
11/09:30am 27.1 27.2 16.4 52 6.7 E 11 17 6 9 1012.5 1011.3 0.0
11/09:00am 27.5 29.1 17.9 55 6.1 NNW 6 13 3 7 1012.6 1011.4 0.0
11/08:30am 26.1 27.0 17.5 59 5.4 ENE 9 15 5 8 1012.4 1011.1 0.0
11/08:00am 25.5 25.0 16.9 59 5.4 ENE 15 20 8 11 1012.5 1011.3 0.0
11/07:30am 24.3 23.7 16.6 62 4.8 E 15 22 8 12 1012.4 1011.1 0.0
11/07:00am 23.4 24.0 17.8 71 3.5 E 11 15 6 8 1012.2 1010.9 0.0
11/06:30am 23.1 22.1 17.6 71 3.4 E 19 26 10 14 1011.8 1010.5 0.0
11/06:00am 22.6 23.8 19.8 84 1.8 ENE 13 20 7 11 1011.2 1009.9 0.0
11/05:30am 22.5 24.0 19.7 84 1.8 ENE 11 15 6 8 1010.7 1009.4 0.0
11/05:00am 22.0 23.4 19.5 86 1.6 NE 11 13 6 7 1010.5 1009.2 0.0
11/04:30am 22.3 23.3 19.5 84 1.8 ENE 13 17 7 9 1010.4 1009.1 0.0
11/04:00am 22.3 23.8 19.7 85 1.7 ENE 11 15 6 8 1010.4 1009.1 0.0
11/03:30am 21.7 23.5 19.6 88 1.3 NE 9 11 5 6 1010.2 1008.9 0.0
11/03:00am 21.6 22.9 19.3 87 1.5 NE 11 15 6 8 1010.2 1008.9 0.0
11/02:30am 21.5 23.2 19.4 88 1.3 ENE 9 13 5 7 1010.1 1008.8 0.0
11/02:00am 21.4 23.4 19.1 87 1.5 NE 7 11 4 6 1010.2 1008.9 0.0
11/01:30am 21.4 23.1 19.3 88 1.3 N 9 11 5 6 1010.3 1009.0 0.0
11/01:00am 21.3 23.4 18.9 86 1.5 NNE 6 9 3 5 1010.7 1009.4 0.0
11/12:30am 21.9 23.0 18.9 83 1.9 NE 11 13 6 7 1010.9 1009.6 0.0
11/12:00am 22.5 23.1 18.7 79 2.4 NE 13 15 7 8 1011.2 1009.9 0.0
 
Date/Time
EST
Temp
°C
App
Temp
°C
Dew
Point
Rel
Hum
%
Delta-T
°C
Wind Press
QNH
hPa
Press
MSL
hPa
Rain
since 9 am
mm
Dir
 
Spd
km/h
Gust
km/h
Spd
kts
Gust
kts
10/11:30pm 23.0 23.5 18.3 75 3.0 ENE 13 19 7 10 1011.5 1010.2 0.0
10/11:00pm 23.4 23.4 17.2 68 3.9 E 13 17 7 9 1011.6 1010.3 0.0
10/10:30pm 24.0 24.0 16.3 62 4.7 SE 11 15 6 8 1011.5 1010.2 0.0
10/10:00pm 23.4 22.9 16.0 63 4.5 SSE 13 13 7 7 1011.3 1010.0 0.0
10/09:30pm 23.5 23.1 16.1 63 4.5 SSE 13 15 7 8 1011.2 1009.9 0.0
10/09:00pm 24.5 23.7 16.2 60 5.1 SSE 15 17 8 9 1011.0 1009.7 0.0
10/08:30pm 24.5 24.3 16.7 61 4.8 SSE 13 15 7 8 1010.9 1009.6 0.0
10/08:00pm 24.7 25.3 16.9 62 4.9 SSE 9 11 5 6 1010.7 1009.4 0.0
10/07:30pm 25.6 26.1 16.5 57 5.6 SE 9 11 5 6 1010.4 1009.1 0.0
10/07:00pm 26.2 26.8 16.7 56 5.9 SE 9 9 5 5 1010.3 1009.0 0.0
10/06:30pm 27.5 27.4 16.1 49 7.1 SSE 11 13 6 7 1010.0 1008.7 0.0
10/06:00pm 28.4 29.8 16.3 47 7.6 NE 4 9 2 5 1009.8 1008.5 0.0
10/05:30pm 28.0 28.3 16.0 48 7.5 E 9 13 5 7 1009.6 1008.3 0.0
10/05:00pm 29.1 28.1 14.5 41 8.9 SE 13 19 7 10 1009.4 1008.1 0.0
10/04:30pm 30.5 31.0 15.0 39 9.6 NNE 6 11 3 6 1009.4 1008.1 0.0
10/04:00pm 29.2 28.6 14.6 41 8.9 E 11 17 6 9 1009.6 1008.3 0.0
10/03:30pm 30.5 31.3 15.8 41 9.2 N 6 11 3 6 1009.5 1008.2 0.0
10/03:00pm 29.3 28.7 14.7 41 8.9 ENE 11 22 6 12 1009.7 1008.4 0.0
10/02:30pm 29.5 29.6 15.6 43 8.6 E 9 13 5 7 1009.9 1008.6 0.0
10/02:00pm 29.5 29.6 15.6 43 8.6 ENE 9 19 5 10 1010.2 1008.9 0.0
10/01:30pm 29.2 28.1 14.2 40 9.1 ENE 13 20 7 11 1010.6 1009.3 0.0
10/01:00pm 28.5 27.6 13.6 40 8.9 ENE 11 22 6 12 1010.8 1009.5 0.0
10/12:30pm 29.4 28.6 15.1 41 8.8 ENE 13 24 7 13 1011.3 1010.0 0.0
10/12:00pm 28.8 29.2 16.4 47 7.8 E 9 17 5 9 1011.8 1010.5 0.0
10/11:30am 28.7 27.6 15.2 43 8.3 E 15 22 8 12 1012.2 1010.9 0.0
10/11:00am 27.5 27.9 15.2 47 7.5 ESE 7 13 4 7 1012.5 1011.3 0.0
10/10:30am 27.4 26.6 16.1 50 7.0 SE 15 24 8 13 1012.7 1011.5 0.0
10/10:00am 27.2 25.8 16.5 52 6.7 E 19 28 10 15 1012.9 1011.7 0.0
10/09:30am 26.6 25.3 15.9 51 6.6 E 17 30 9 16 1013.1 1011.9 0.0
10/09:00am 25.5 23.5 15.5 54 6.1 ENE 20 30 11 16 1013.1 1011.9 0.0
10/08:30am 25.7 25.0 16.5 56 5.7 E 15 24 8 13 1013.3 1012.1 0.0
10/08:00am 24.6 23.8 16.1 59 5.2 ESE 15 20 8 11 1013.1 1011.9 0.0
10/07:30am 23.8 22.3 15.3 59 5.1 SE 17 20 9 11 1012.7 1011.5 0.0
10/07:00am 22.3 21.7 16.6 70 3.5 SSE 15 19 8 10 1012.5 1011.3 0.0
10/06:30am 20.3 21.7 17.9 86 1.5 SSW 7 9 4 5 1012.2 1010.9 0.0
10/06:00am 19.9 21.2 17.1 84 1.7 SSW 6 9 3 5 1011.9 1010.6 0.0
10/05:30am 19.6 20.7 17.0 85 1.6 SSW 7 9 4 5 1011.6 1010.3 0.0
10/05:00am 21.1 22.2 17.1 78 2.5 ESE 7 11 4 6 1011.3 1010.0 0.0
10/04:30am 21.5 21.5 17.3 77 2.6 E 13 15 7 8 1011.2 1009.9 0.0
10/04:00am 21.6 22.2 17.6 78 2.5 ESE 11 15 6 8 1010.9 1009.6 0.0
10/03:30am 21.3 21.9 17.7 80 2.2 ENE 11 17 6 9 1010.9 1009.6 0.0
10/03:00am 21.8 21.5 18.2 80 2.3 ENE 17 20 9 11 1010.9 1009.6 0.0
10/02:30am 21.5 22.1 18.5 83 1.9 ENE 13 17 7 9 1011.1 1009.8 0.0
10/02:00am 21.2 22.1 18.4 84 1.8 NE 11 15 6 8 1011.1 1009.8 0.0
10/01:30am 21.7 22.0 18.7 83 1.9 ENE 15 19 8 10 1011.5 1010.2 0.0
10/01:00am 22.0 23.8 18.4 80 2.3 ENE 6 9 3 5 1012.0 1010.7 0.0
10/12:30am 22.4 23.3 18.4 78 2.5 NE 11 17 6 9 1011.9 1010.6 0.0
10/12:00am 23.3 22.4 18.2 73 3.2 NE 20 28 11 15 1012.2 1010.9 0.0
 
Date/Time
EST
Temp
°C
App
Temp
°C
Dew
Point
Rel
Hum
%
Delta-T
°C
Wind Press
QNH
hPa
Press
MSL
hPa
Rain
since 9 am
mm
Dir
 
Spd
km/h
Gust
km/h
Spd
kts
Gust
kts
09/11:30pm 23.7 22.7 18.8 74 3.1 ENE 22 32 12 17 1012.5 1011.3 0.0
09/11:00pm 23.8 24.2 18.9 74 3.1 NE 15 20 8 11 1012.7 1011.5 0.0
09/10:30pm 23.9 24.2 18.8 73 3.3 NE 15 20 8 11 1012.7 1011.5 0.0
09/10:00pm 24.4 24.0 18.8 71 3.6 NE 19 24 10 13 1012.9 1011.7 0.0
09/09:30pm 25.2 24.9 19.1 69 3.9 NE 19 28 10 15 1012.8 1011.6 0.0
09/09:00pm 25.5 26.0 17.4 61 5.1 SSE 11 13 6 7 1012.3 1011.0 0.0
09/08:30pm 26.4 26.4 16.3 53 6.3 SE 11 15 6 8 1012.2 1010.9 0.0
09/08:00pm 26.7 26.0 16.3 53 6.5 SE 15 17 8 9 1012.1 1010.8 0.0
09/07:30pm 26.4 26.4 16.3 53 6.3 SE 11 15 6 8 1012.0 1010.7 0.0
09/07:00pm 27.3 27.1 15.7 49 7.2 ESE 11 15 6 8 1011.6 1010.3 0.0
09/06:30pm 28.1 27.9 15.7 46 7.7 ESE 11 17 6 9 1011.3 1010.0 0.0
09/06:00pm 29.6 27.4 15.0 41 9.0 ESE 20 30 11 16 1011.0 1009.7 0.0
09/05:30pm 30.0 28.9 15.3 41 9.1 ESE 15 20 8 11 1010.6 1009.3 0.0
09/05:00pm 30.6 29.6 15.5 40 9.4 ESE 15 20 8 11 1010.3 1009.0 0.0
09/04:30pm 30.1 28.8 15.8 42 8.9 ESE 17 26 9 14 1010.4 1009.1 0.0
09/04:00pm 30.1 28.5 16.1 42 8.8 E 19 30 10 16 1010.5 1009.2 0.0
09/03:30pm 31.2 29.8 17.1 42 9.0 E 20 30 11 16 1010.5 1009.2 0.0
09/03:00pm 29.4 29.3 16.9 47 7.9 ESE 13 24 7 13 1010.9 1009.6 0.0
09/02:30pm 29.8 29.2 16.6 45 8.3 ESE 15 26 8 14 1011.2 1009.9 0.0
09/02:00pm 29.3 28.1 16.1 44 8.3 E 17 26 9 14 1011.6 1010.3 0.0
09/01:30pm 29.3 29.0 16.5 46 8.0 ESE 13 20 7 11 1012.0 1010.7 0.0
09/01:00pm 29.4 29.8 16.2 44 8.3 E 9 19 5 10 1012.3 1011.0 0.0
09/12:30pm 29.7 30.0 17.8 48 7.6 E 13 19 7 10 1012.6 1011.4 0.0
09/12:00pm 29.7 29.5 16.8 45 8.2 E 13 24 7 13 1012.9 1011.7 0.0
09/11:30am 28.6 27.4 16.2 47 7.7 SE 17 28 9 15 1013.3 1012.1 0.0
09/11:00am 28.8 28.6 16.7 48 7.6 ESE 13 20 7 11 1013.7 1012.5 0.0
09/10:30am 27.9 26.5 15.5 46 7.6 E 17 26 9 14 1014.2 1012.9 0.0
09/10:00am 27.8 27.1 16.4 50 7.1 ESE 15 24 8 13 1014.4 1013.1 0.0
09/09:30am 27.2 25.9 16.8 53 6.5 ESE 19 26 10 14 1014.6 1013.3 0.0
09/09:00am 26.7 25.6 17.2 56 6.0 SE 19 24 10 13 1014.6 1013.3 0.0
09/08:30am 26.0 24.4 16.5 55 5.9 ESE 20 28 11 15 1014.5 1013.2 0.0
09/08:00am 25.5 24.2 15.8 55 5.9 E 17 22 9 12 1014.3 1013.0 0.0
09/07:30am 24.7 24.5 16.7 61 5.0 ESE 13 19 7 10 1014.3 1013.0 0.0
09/07:00am 23.7 24.0 17.9 70 3.7 E 13 17 7 9 1013.9 1012.7 0.0
09/06:30am 22.4 22.4 17.3 73 3.2 E 13 19 7 10 1013.6 1012.4 0.0
09/06:00am 21.8 21.1 17.4 76 2.7 E 17 22 9 12 1013.1 1011.9 0.0
09/05:30am 21.0 21.4 18.2 84 1.8 E 13 15 7 8 1012.9 1011.7 0.0
09/05:00am 21.7 22.3 18.5 82 2.0 ESE 13 17 7 9 1012.6 1011.4 0.0
09/04:30am 21.9 22.2 18.7 82 2.0 E 15 19 8 10 1012.2 1010.9 0.0
09/04:00am 22.0 23.5 18.8 82 2.0 E 9 15 5 8 1012.1 1010.8 0.0
09/03:30am 22.6 23.4 19.0 80 2.3 E 13 24 7 13 1012.0 1010.7 0.0
09/03:00am 22.0 22.9 19.2 84 1.8 ENE 13 17 7 9 1011.9 1010.6 0.0
09/02:30am 22.3 23.7 19.5 84 1.8 E 11 15 6 8 1012.3 1011.0 0.0
09/02:00am 22.4 23.5 19.6 84 1.8 ENE 13 17 7 9 1012.2 1010.9 0.0
09/01:30am 22.8 23.6 19.8 83 1.9 ENE 15 20 8 11 1012.4 1011.1 0.0
09/01:00am 22.7 23.9 19.9 84 1.8 ENE 13 17 7 9 1012.5 1011.3 0.0
09/12:30am 22.7 23.9 19.9 84 1.8 ENE 13 17 7 9 1012.6 1011.4 0.0
09/12:00am 22.8 24.0 19.8 83 1.9 NE 13 19 7 10 1013.1 1011.9 0.0
 
Date/Time
EST
Temp
°C
App
Temp
°C
Dew
Point
Rel
Hum
%
Delta-T
°C
Wind Press
QNH
hPa
Press
MSL
hPa
Rain
since 9 am
mm
Dir
 
Spd
km/h
Gust
km/h
Spd
kts
Gust
kts
08/11:30pm 23.1 24.0 20.1 83 2.0 NE 15 20 8 11 1013.2 1012.0 0.0
08/11:00pm 23.5 24.2 20.4 83 2.0 NE 17 22 9 12 1013.1 1011.9 0.0
08/10:30pm 24.4 24.6 20.5 79 2.6 ENE 20 26 11 14 1013.0 1011.8 0.0
08/10:00pm 23.8 25.0 19.9 79 2.5 E 13 17 7 9 1012.7 1011.5 0.0
08/09:30pm 24.2 26.3 20.1 78 2.7 NE 9 11 5 6 1012.7 1011.5 0.0
08/09:00pm 24.3 26.8 20.2 78 2.7 NNE 7 9 4 5 1012.6 1011.4 0.0
08/08:30pm 25.5 28.2 20.7 75 3.2 NE 7 9 4 5 1012.3 1011.0 0.0
08/08:00pm 25.5 28.6 21.0 76 3.0 NE 6 7 3 4 1012.0 1010.7 0.0
08/07:30pm 25.0 27.2 20.5 76 3.0 NE 9 11 5 6 1011.8 1010.5 0.0
08/07:00pm 25.3 24.9 19.4 70 3.8 E 20 33 11 18 1011.8 1010.5 0.0
08/06:30pm 28.0 29.8 19.5 60 5.6 E 9 9 5 5 1011.4 1010.1 0.0
08/06:00pm 28.8 30.5 19.4 56 6.2 E 9 13 5 7 1011.0 1009.7 0.0
08/05:30pm 29.3 30.1 18.1 51 7.2 E 11 17 6 9 1010.7 1009.4 0.0
08/05:00pm 29.6 29.2 18.1 50 7.4 E 17 24 9 13 1010.4 1009.1 0.0
08/04:30pm 29.7 29.5 18.5 51 7.3 ENE 17 22 9 12 1010.3 1009.0 0.0
08/04:00pm 29.5 30.2 18.9 53 6.9 ENE 13 19 7 10 1010.2 1008.9 0.0
08/03:30pm 29.5 29.6 19.2 54 6.7 E 17 20 9 11 1010.2 1008.9 0.0
08/03:00pm 29.9 31.7 19.6 54 6.8 ENE 9 15 5 8 1010.4 1009.1 0.0
08/02:30pm 29.5 31.7 19.2 54 6.7 ESE 6 9 3 5 1010.9 1009.6 0.0
08/02:00pm 29.3 29.2 18.7 52 6.9 ENE 17 20 9 11 1011.3 1010.0 0.0
08/01:30pm 30.3 32.1 19.6 52 7.1 E 9 20 5 11 1011.6 1010.3 0.0
08/01:00pm 29.7 32.4 21.4 61 5.6 NW 9 22 5 12 1012.1 1010.8 0.0
08/12:30pm 28.2 31.1 21.7 68 4.4 NNW 9 13 5 7 1012.7 1011.5 0.0

Other Formats:

Comma delimited format used in spreadsheet applications
http://www.bom.gov.au/fwo/IDQ60801/IDQ60801.94398.axf

JavaScript Object Notation format (JSON) in row-major order
http://www.bom.gov.au/fwo/IDQ60801/IDQ60801.94398.json